createdAt,value
2023-04-27T00:02:13.830Z,28.80
2023-04-27T00:04:41.970Z,25.80
2023-04-27T00:07:10.059Z,27.40
2023-04-27T00:09:38.392Z,26.00
2023-04-27T00:12:07.140Z,28.90
2023-04-27T00:14:34.865Z,25.00
2023-04-27T00:17:02.858Z,29.60
2023-04-27T00:19:30.700Z,26.30
2023-04-27T00:22:00.392Z,24.90
2023-04-27T00:24:28.959Z,23.40
2023-04-27T00:26:57.851Z,25.50
2023-04-27T00:29:25.777Z,30.20
2023-04-27T00:31:53.707Z,27.30
2023-04-27T00:34:21.766Z,25.50
2023-04-27T00:36:49.548Z,24.90
2023-04-27T00:39:17.959Z,27.70
2023-04-27T00:41:46.319Z,26.40
2023-04-27T00:44:14.072Z,26.90
2023-04-27T00:46:41.972Z,28.50
2023-04-27T00:49:09.722Z,25.40
2023-04-27T00:51:37.513Z,26.60
2023-04-27T00:54:06.269Z,25.20
2023-04-27T00:56:34.552Z,26.80
2023-04-27T00:59:02.337Z,25.50
2023-04-27T01:01:30.577Z,29.90
2023-04-27T01:03:58.657Z,27.70
2023-04-27T01:06:28.284Z,28.60
2023-04-27T01:08:56.681Z,27.40
2023-04-27T01:11:25.086Z,30.50
2023-04-27T01:13:54.887Z,28.90
2023-04-27T01:16:22.921Z,26.80
2023-04-27T01:18:50.769Z,25.70
2023-04-27T01:21:19.086Z,26.00
2023-04-27T01:23:47.486Z,28.90
2023-04-27T01:26:16.553Z,29.90
2023-04-27T01:28:44.460Z,29.40
2023-04-27T01:31:12.644Z,22.60
2023-04-27T01:33:41.446Z,25.30
2023-04-27T01:36:10.216Z,24.30
2023-04-27T01:38:38.107Z,26.40
2023-04-27T01:41:09.167Z,23.70
2023-04-27T01:43:37.416Z,25.60
2023-04-27T01:46:13.301Z,29.80
2023-04-27T01:48:41.908Z,28.00
2023-04-27T01:51:09.724Z,30.20
2023-04-27T01:53:37.492Z,25.70
2023-04-27T01:56:06.883Z,25.40
2023-04-27T01:58:35.126Z,26.40
2023-04-27T02:01:02.934Z,27.40
2023-04-27T02:03:30.985Z,25.70
2023-04-27T02:05:58.956Z,27.40
2023-04-27T02:08:26.863Z,26.70
2023-04-27T02:10:55.330Z,26.60
2023-04-27T02:13:23.614Z,25.60
2023-04-27T02:15:51.530Z,28.30
2023-04-27T02:18:20.285Z,25.00
2023-04-27T02:20:48.176Z,29.50
2023-04-27T02:23:16.004Z,23.70
2023-04-27T02:25:46.968Z,36.10
2023-04-27T02:28:15.728Z,26.30
2023-04-27T02:30:44.178Z,30.90
2023-04-27T02:33:11.989Z,30.20
2023-04-27T02:35:39.768Z,27.40
2023-04-27T02:38:07.559Z,24.70
2023-04-27T02:40:35.981Z,25.50
2023-04-27T02:43:04.322Z,24.00
2023-04-27T02:45:32.115Z,29.00
2023-04-27T02:47:59.975Z,25.10
2023-04-27T02:50:27.744Z,26.20
2023-04-27T02:52:56.467Z,27.80
2023-04-27T02:55:24.738Z,24.50
2023-04-27T02:57:52.506Z,28.10
2023-04-27T03:00:20.446Z,29.00
2023-04-27T03:02:48.317Z,22.90
2023-04-27T03:05:17.017Z,26.60
2023-04-27T03:07:45.175Z,23.70
2023-04-27T03:10:12.921Z,25.30
2023-04-27T03:12:40.755Z,24.20
2023-04-27T03:15:09.212Z,25.10
2023-04-27T03:17:36.975Z,23.00
2023-04-27T03:20:09.502Z,23.40
2023-04-27T03:22:37.308Z,26.00
2023-04-27T03:25:06.119Z,24.70
2023-04-27T03:27:33.906Z,26.40
2023-04-27T03:30:01.774Z,23.10
2023-04-27T03:32:29.534Z,24.10
2023-04-27T03:34:57.519Z,22.60
2023-04-27T03:37:25.280Z,22.20
2023-04-27T03:39:53.021Z,27.30
2023-04-27T03:42:20.831Z,20.30
2023-04-27T03:44:48.630Z,29.20
2023-04-27T03:47:16.421Z,21.10
2023-04-27T03:49:44.149Z,24.60
2023-04-27T03:52:11.969Z,28.00
2023-04-27T03:54:39.723Z,23.60
2023-04-27T03:57:07.826Z,24.80
2023-04-27T03:59:35.634Z,23.20
2023-04-27T04:02:05.590Z,25.90
2023-04-27T04:04:33.757Z,21.60
2023-04-27T04:07:01.767Z,24.90
2023-04-27T04:09:29.579Z,22.90
2023-04-27T04:11:58.029Z,20.20
2023-04-27T04:14:26.222Z,20.20
2023-04-27T04:16:54.606Z,21.00
2023-04-27T04:19:22.561Z,25.50
2023-04-27T04:21:50.791Z,22.00
2023-04-27T04:24:18.897Z,23.80
2023-04-27T04:26:47.334Z,22.90
2023-04-27T04:29:15.950Z,20.20
2023-04-27T04:31:44.559Z,24.90
2023-04-27T04:34:12.936Z,21.90
2023-04-27T04:36:40.689Z,27.00
2023-04-27T04:39:08.517Z,21.10
2023-04-27T04:41:36.708Z,22.80
2023-04-27T04:44:06.181Z,20.70
2023-04-27T04:46:34.012Z,22.20
2023-04-27T04:49:02.769Z,23.40
2023-04-27T04:51:30.862Z,23.60
2023-04-27T04:54:01.149Z,27.30
2023-04-27T04:56:30.471Z,23.20
2023-04-27T04:58:58.683Z,24.60
2023-04-27T05:01:26.681Z,23.50
2023-04-27T05:03:54.613Z,20.20
2023-04-27T05:06:22.576Z,21.80
2023-04-27T05:08:50.363Z,21.90
2023-04-27T05:11:18.915Z,23.10
2023-04-27T05:13:48.056Z,22.80
2023-04-27T05:16:16.409Z,28.90
2023-04-27T05:18:44.261Z,19.10
2023-04-27T05:21:17.666Z,22.80
2023-04-27T05:23:45.445Z,21.90
2023-04-27T05:26:18.395Z,21.50
2023-04-27T05:28:47.250Z,23.90
2023-04-27T05:31:15.074Z,21.80
2023-04-27T05:33:42.872Z,22.70
2023-04-27T05:36:11.112Z,23.10
2023-04-27T05:38:40.594Z,22.10
2023-04-27T05:41:09.018Z,23.30
2023-04-27T05:43:38.757Z,24.60
2023-04-27T05:46:06.807Z,23.50
2023-04-27T05:48:35.289Z,23.00
2023-04-27T05:51:04.188Z,21.50
2023-04-27T05:53:34.705Z,25.30
2023-04-27T05:56:04.523Z,23.60
2023-04-27T05:58:33.699Z,22.10
2023-04-27T06:01:03.482Z,20.50
2023-04-27T06:03:31.587Z,25.10
2023-04-27T06:06:01.281Z,23.10
2023-04-27T06:08:29.844Z,23.30
2023-04-27T06:10:57.990Z,24.30
2023-04-27T06:13:26.350Z,23.40
2023-04-27T06:15:54.608Z,21.10
2023-04-27T06:18:22.428Z,23.70
2023-04-27T06:20:50.625Z,19.90
2023-04-27T06:23:18.452Z,19.50
2023-04-27T06:25:46.297Z,20.50
2023-04-27T06:28:14.612Z,19.50
2023-04-27T06:30:42.921Z,20.80
2023-04-27T06:33:10.908Z,19.50
2023-04-27T06:35:38.873Z,21.90
2023-04-27T06:38:07.695Z,21.30
2023-04-27T06:40:37.101Z,21.90
2023-04-27T06:43:05.410Z,20.70
2023-04-27T06:45:33.654Z,18.20
2023-04-27T06:48:01.589Z,20.80
2023-04-27T06:50:30.641Z,19.20
2023-04-27T06:52:58.430Z,24.50
2023-04-27T06:55:26.489Z,20.80
2023-04-27T06:57:54.783Z,17.80
2023-04-27T07:00:23.184Z,18.70
2023-04-27T07:02:51.756Z,20.90
2023-04-27T07:05:20.138Z,20.90
2023-04-27T07:07:47.932Z,23.00
2023-04-27T07:10:16.048Z,24.60
2023-04-27T07:12:44.667Z,24.40
2023-04-27T07:15:13.519Z,20.10
2023-04-27T07:17:41.941Z,26.60
2023-04-27T07:20:10.096Z,25.70
2023-04-27T07:22:38.027Z,26.10
2023-04-27T07:25:06.858Z,26.40
2023-04-27T07:27:35.947Z,26.10
2023-04-27T07:30:05.603Z,24.90
2023-04-27T07:32:33.614Z,24.80
2023-04-27T07:35:01.865Z,23.60
2023-04-27T07:37:29.714Z,23.20
2023-04-27T07:39:59.936Z,25.30
2023-04-27T07:42:28.337Z,22.30
2023-04-27T07:44:57.380Z,24.60
2023-04-27T07:47:25.216Z,29.90
2023-04-27T07:49:53.176Z,25.90
2023-04-27T07:52:20.994Z,24.20
2023-04-27T07:54:49.497Z,22.50
2023-04-27T07:57:17.292Z,24.40
2023-04-27T07:59:46.648Z,24.90
2023-04-27T08:02:19.746Z,22.90
2023-04-27T08:07:18.926Z,20.90
2023-04-27T08:09:47.345Z,22.30
2023-04-27T08:12:15.098Z,23.00
2023-04-27T08:14:42.865Z,18.70
2023-04-27T08:17:11.455Z,19.20
2023-04-27T08:19:41.165Z,18.70
2023-04-27T08:22:09.066Z,18.50
2023-04-27T08:24:37.601Z,20.10
2023-04-27T08:27:08.943Z,14.00
2023-04-27T08:29:37.062Z,20.80
2023-04-27T08:32:05.380Z,15.60
2023-04-27T08:34:33.698Z,16.50
2023-04-27T08:37:02.469Z,15.90
2023-04-27T08:39:30.487Z,16.30
2023-04-27T08:41:58.356Z,16.60
2023-04-27T08:44:26.353Z,9.50
2023-04-27T08:46:54.236Z,9.30
2023-04-27T08:49:22.721Z,13.10
2023-04-27T08:51:50.468Z,10.40
2023-04-27T08:54:19.579Z,12.30
2023-04-27T08:56:47.334Z,10.70
2023-04-27T08:59:16.548Z,10.10
2023-04-27T09:01:49.675Z,9.30
2023-04-27T09:04:18.710Z,13.30
2023-04-27T09:06:46.644Z,12.50
2023-04-27T09:09:25.568Z,8.50
2023-04-27T09:11:53.391Z,9.20
2023-04-27T09:14:23.646Z,15.00
2023-04-27T09:16:59.780Z,12.90
2023-04-27T09:19:29.356Z,21.80
2023-04-27T09:22:05.126Z,16.00
2023-04-27T09:24:33.038Z,15.50
2023-04-27T09:27:01.874Z,9.80
2023-04-27T09:29:38.115Z,12.60
2023-04-27T09:32:20.689Z,10.40
2023-04-27T09:34:48.643Z,13.60
2023-04-27T09:37:16.627Z,9.50
2023-04-27T09:39:45.894Z,11.50
2023-04-27T09:42:13.754Z,9.30
2023-04-27T09:44:41.574Z,9.00
2023-04-27T09:47:10.804Z,11.10
2023-04-27T09:49:39.003Z,11.00
2023-04-27T09:52:06.748Z,13.00
2023-04-27T09:54:36.164Z,10.10
2023-04-27T09:57:17.451Z,10.20
2023-04-27T10:00:29.325Z,14.60
2023-04-27T10:03:12.233Z,11.80
2023-04-27T10:05:46.356Z,15.50
2023-04-27T10:08:15.254Z,13.60
2023-04-27T10:10:48.126Z,9.30
2023-04-27T10:13:27.156Z,9.10
2023-04-27T10:15:54.967Z,9.30
2023-04-27T10:18:28.038Z,14.30
2023-04-27T10:20:55.974Z,11.70
2023-04-27T10:23:27.050Z,9.70
2023-04-27T10:25:55.249Z,9.00
2023-04-27T10:28:23.243Z,9.50
2023-04-27T10:30:52.048Z,9.80
2023-04-27T10:33:22.806Z,10.50
2023-04-27T10:35:56.946Z,5.90
2023-04-27T10:38:30.811Z,6.90
2023-04-27T10:41:05.114Z,10.10
2023-04-27T10:43:35.925Z,10.40
2023-04-27T10:46:12.029Z,11.40
2023-04-27T10:48:41.221Z,10.30
2023-04-27T10:51:09.211Z,9.10
2023-04-27T10:53:37.768Z,8.20
2023-04-27T10:56:07.179Z,9.40
2023-04-27T10:58:48.313Z,10.50
2023-04-27T11:01:27.506Z,12.30
2023-04-27T11:04:00.164Z,11.70
2023-04-27T11:06:30.420Z,11.70
2023-04-27T11:08:58.304Z,9.20
2023-04-27T11:11:26.549Z,7.60
2023-04-27T11:13:55.998Z,9.50
2023-04-27T11:16:24.292Z,14.10
2023-04-27T11:18:52.652Z,12.50
2023-04-27T11:21:21.671Z,12.00
2023-04-27T11:23:49.490Z,11.10
2023-04-27T11:26:19.844Z,10.20
2023-04-27T11:28:57.997Z,11.20
2023-04-27T11:31:27.420Z,10.70
2023-04-27T11:33:56.083Z,8.70
2023-04-27T11:36:24.537Z,8.10
2023-04-27T11:38:58.400Z,9.20
2023-04-27T11:41:37.404Z,7.90
2023-04-27T11:44:08.362Z,13.20
2023-04-27T11:46:38.260Z,11.80
2023-04-27T11:49:09.133Z,21.50
2023-04-27T11:51:37.757Z,22.80
2023-04-27T11:54:07.592Z,29.40
2023-04-27T11:56:37.971Z,21.10
2023-04-27T11:59:06.923Z,15.90
2023-04-27T12:01:37.994Z,13.00
2023-04-27T12:04:06.442Z,8.90
2023-04-27T12:06:34.840Z,8.30
2023-04-27T12:09:03.951Z,13.70
2023-04-27T12:11:31.812Z,20.20
2023-04-27T12:14:00.138Z,24.80
2023-04-27T12:16:28.134Z,22.10
2023-04-27T12:18:56.002Z,12.80
2023-04-27T12:21:24.401Z,14.10
2023-04-27T12:23:52.904Z,16.50
2023-04-27T12:26:21.651Z,12.50
2023-04-27T12:28:50.021Z,9.00
2023-04-27T12:31:23.609Z,16.70
2023-04-27T12:33:52.673Z,29.00
2023-04-27T12:36:21.215Z,33.10
2023-04-27T12:38:49.040Z,20.70
2023-04-27T12:41:17.234Z,16.60
2023-04-27T12:43:46.045Z,16.30
2023-04-27T12:46:14.130Z,23.30
2023-04-27T12:48:41.986Z,22.10
2023-04-27T12:51:11.168Z,17.60
2023-04-27T12:53:39.000Z,11.20
2023-04-27T12:56:07.325Z,11.50
2023-04-27T12:58:35.146Z,13.80
2023-04-27T13:01:02.956Z,14.80
2023-04-27T13:03:31.295Z,13.80
2023-04-27T13:05:59.816Z,15.20
2023-04-27T13:08:27.707Z,14.60
2023-04-27T13:10:55.983Z,16.00
2023-04-27T13:13:23.749Z,11.70
2023-04-27T13:15:51.608Z,18.30
2023-04-27T13:18:19.621Z,19.60
2023-04-27T13:20:48.948Z,51.90
2023-04-27T13:23:17.310Z,66.30
2023-04-27T13:25:45.621Z,20.90
2023-04-27T13:28:13.465Z,15.80
2023-04-27T13:30:41.681Z,16.70
2023-04-27T13:33:21.777Z,15.70
2023-04-27T13:35:52.096Z,9.90
2023-04-27T13:38:20.439Z,20.70
2023-04-27T13:40:48.269Z,17.90
2023-04-27T13:43:16.221Z,14.00
2023-04-27T13:45:45.434Z,11.00
2023-04-27T13:48:14.017Z,11.70
2023-04-27T13:50:41.892Z,10.00
2023-04-27T13:53:10.276Z,10.80
2023-04-27T13:55:38.775Z,11.20
2023-04-27T13:58:06.864Z,13.10
2023-04-27T14:00:35.284Z,10.60
2023-04-27T14:03:04.918Z,11.60
2023-04-27T14:05:33.061Z,11.30
2023-04-27T14:08:01.403Z,13.50
2023-04-27T14:10:30.263Z,9.30
2023-04-27T14:12:58.584Z,11.30
2023-04-27T14:15:26.366Z,12.00
2023-04-27T14:17:54.144Z,15.00
2023-04-27T14:20:22.737Z,13.00
2023-04-27T14:22:50.573Z,12.70
2023-04-27T14:25:19.092Z,12.10
2023-04-27T14:27:46.846Z,8.90
2023-04-27T14:30:15.541Z,10.40
2023-04-27T14:32:43.391Z,11.30
2023-04-27T14:35:11.336Z,21.90
2023-04-27T14:37:39.495Z,23.30
2023-04-27T14:40:08.670Z,20.00
2023-04-27T14:42:36.468Z,18.60
2023-04-27T14:45:04.624Z,14.00
2023-04-27T14:47:32.724Z,12.70
2023-04-27T14:50:01.278Z,20.40
2023-04-27T14:52:29.791Z,14.60
2023-04-27T14:54:59.367Z,16.80
2023-04-27T14:57:27.242Z,10.40
2023-04-27T14:59:55.091Z,10.30
2023-04-27T15:02:23.097Z,10.80
2023-04-27T15:04:51.274Z,10.50
2023-04-27T15:07:21.489Z,15.30
2023-04-27T15:09:51.510Z,15.40
2023-04-27T15:12:19.321Z,16.80
2023-04-27T15:14:48.470Z,23.90
2023-04-27T15:17:16.271Z,16.00
2023-04-27T15:19:44.090Z,13.70
2023-04-27T15:22:14.731Z,15.00
2023-04-27T15:24:43.057Z,10.30
2023-04-27T15:27:10.842Z,9.40
2023-04-27T15:29:38.665Z,35.70
2023-04-27T15:32:06.686Z,23.10
2023-04-27T15:34:34.469Z,15.10
2023-04-27T15:37:03.749Z,13.70
2023-04-27T15:39:32.234Z,17.50
2023-04-27T15:42:01.445Z,13.10
2023-04-27T15:44:29.230Z,16.40
2023-04-27T15:46:57.179Z,16.90
2023-04-27T15:49:25.132Z,20.00
2023-04-27T15:51:55.279Z,21.00
2023-04-27T15:54:23.627Z,17.40
2023-04-27T15:56:51.938Z,23.10
2023-04-27T15:59:19.782Z,24.40
2023-04-27T16:01:47.641Z,28.10
2023-04-27T16:04:15.992Z,28.50
2023-04-27T16:06:44.570Z,26.90
2023-04-27T16:09:13.296Z,23.00
2023-04-27T16:11:42.983Z,25.80
2023-04-27T16:14:10.921Z,21.80
2023-04-27T16:16:38.962Z,20.10
2023-04-27T16:19:08.861Z,17.60
2023-04-27T16:21:37.128Z,25.40
2023-04-27T16:24:05.768Z,24.80
2023-04-27T16:26:33.766Z,23.30
2023-04-27T16:29:01.521Z,28.30
2023-04-27T16:31:29.392Z,27.00
2023-04-27T16:33:57.213Z,26.90
2023-04-27T16:36:25.394Z,24.10
2023-04-27T16:38:53.721Z,28.90
2023-04-27T16:41:22.181Z,30.00
2023-04-27T16:43:51.133Z,31.50
2023-04-27T16:46:18.980Z,34.00
2023-04-27T16:48:46.960Z,35.80
2023-04-27T16:51:15.343Z,47.50
2023-04-27T16:53:43.799Z,48.10
2023-04-27T16:56:13.632Z,46.40
2023-04-27T16:58:41.467Z,38.60
2023-04-27T17:01:09.312Z,28.80
2023-04-27T17:03:37.298Z,24.80
2023-04-27T17:06:05.590Z,29.00
2023-04-27T17:08:34.014Z,25.90
2023-04-27T17:11:02.108Z,26.90
2023-04-27T17:13:31.762Z,27.30
2023-04-27T17:15:59.613Z,31.50
2023-04-27T17:18:27.524Z,34.40
2023-04-27T17:20:55.969Z,39.40
2023-04-27T17:23:24.293Z,35.50
2023-04-27T17:25:52.068Z,29.90
2023-04-27T17:28:19.895Z,33.10
2023-04-27T17:30:47.774Z,40.60
2023-04-27T17:33:16.792Z,32.10
2023-04-27T17:35:47.167Z,30.70
2023-04-27T17:38:16.260Z,46.90
2023-04-27T17:40:44.191Z,30.00
2023-04-27T17:43:12.045Z,27.60
2023-04-27T17:45:39.905Z,29.70
2023-04-27T17:48:07.788Z,29.50
2023-04-27T17:50:37.499Z,29.90
2023-04-27T17:53:05.942Z,37.20
2023-04-27T17:55:33.934Z,33.80
2023-04-27T17:58:04.093Z,31.60
2023-04-27T18:00:32.297Z,43.40
2023-04-27T18:03:00.447Z,42.50
2023-04-27T18:05:29.440Z,39.20
2023-04-27T18:07:57.226Z,39.50
2023-04-27T18:10:25.009Z,50.00
2023-04-27T18:12:52.746Z,38.80
2023-04-27T18:15:20.611Z,65.10
2023-04-27T18:17:49.011Z,69.70
2023-04-27T18:20:17.691Z,72.40
2023-04-27T18:22:45.554Z,87.90
2023-04-27T18:25:13.432Z,62.20
2023-04-27T18:27:43.781Z,60.40
2023-04-27T18:30:11.796Z,53.70
2023-04-27T18:32:42.889Z,44.30
2023-04-27T18:35:11.355Z,35.90
2023-04-27T18:37:39.077Z,56.10
2023-04-27T18:40:07.801Z,93.50
2023-04-27T18:42:35.606Z,59.80
2023-04-27T18:45:04.122Z,43.80
2023-04-27T18:47:32.536Z,45.50
2023-04-27T18:50:00.404Z,47.80
2023-04-27T18:52:28.169Z,50.30
2023-04-27T18:54:56.002Z,53.00
2023-04-27T18:57:26.587Z,50.90
2023-04-27T18:59:54.978Z,56.20
2023-04-27T19:02:25.352Z,53.50
2023-04-27T19:05:07.579Z,49.20
2023-04-27T19:07:40.779Z,48.80
2023-04-27T19:10:10.245Z,50.70
2023-04-27T19:12:38.429Z,48.20
2023-04-27T19:15:07.104Z,49.80
2023-04-27T19:17:35.304Z,51.50
2023-04-27T19:20:03.899Z,49.50
2023-04-27T19:22:34.515Z,57.80
2023-04-27T19:25:04.376Z,51.60
2023-04-27T19:27:32.347Z,44.70
2023-04-27T19:30:01.115Z,49.80
2023-04-27T19:32:28.964Z,48.30
2023-04-27T19:34:58.180Z,44.90
2023-04-27T19:37:28.735Z,43.90
2023-04-27T19:39:57.050Z,47.70
2023-04-27T19:42:25.181Z,45.70
2023-04-27T19:44:52.989Z,42.00
2023-04-27T19:47:21.238Z,43.60
2023-04-27T19:49:49.556Z,43.40
2023-04-27T19:52:17.812Z,41.30
2023-04-27T19:54:51.101Z,38.30
2023-04-27T19:57:19.105Z,35.30
2023-04-27T19:59:47.048Z,38.30
2023-04-27T20:02:16.019Z,35.40
2023-04-27T20:04:44.986Z,36.50
2023-04-27T20:07:13.065Z,37.00
2023-04-27T20:09:40.970Z,38.50
2023-04-27T20:12:19.453Z,38.90
2023-04-27T20:14:57.280Z,39.20
2023-04-27T20:17:26.247Z,38.60
2023-04-27T20:19:57.196Z,40.10
2023-04-27T20:22:24.963Z,38.50
2023-04-27T20:24:53.340Z,40.10
2023-04-27T20:27:21.612Z,37.90
2023-04-27T20:29:50.207Z,39.30
2023-04-27T20:32:18.056Z,38.00
2023-04-27T20:34:45.995Z,42.00
2023-04-27T20:37:13.786Z,42.90
2023-04-27T20:39:42.101Z,45.30
2023-04-27T20:42:12.728Z,41.50
2023-04-27T20:44:40.491Z,42.60
2023-04-27T20:47:08.281Z,44.50
2023-04-27T20:49:36.016Z,44.10
2023-04-27T20:52:03.957Z,47.80
2023-04-27T20:54:33.175Z,47.50
2023-04-27T20:57:02.313Z,45.00
2023-04-27T20:59:30.124Z,48.40
2023-04-27T21:01:57.868Z,53.70
2023-04-27T21:04:25.794Z,46.10
2023-04-27T21:06:53.751Z,47.30
2023-04-27T21:09:22.113Z,47.10
2023-04-27T21:11:50.654Z,47.90
2023-04-27T21:14:18.445Z,45.70
2023-04-27T21:16:46.270Z,48.70
2023-04-27T21:19:16.227Z,46.30
2023-04-27T21:21:44.093Z,47.30
2023-04-27T21:24:12.425Z,44.70
2023-04-27T21:26:42.304Z,47.40
2023-04-27T21:29:10.534Z,46.30
2023-04-27T21:31:38.410Z,47.30
2023-04-27T21:34:06.266Z,45.00
2023-04-27T21:36:34.549Z,43.40
2023-04-27T21:39:03.001Z,47.10
2023-04-27T21:41:30.761Z,53.20
2023-04-27T21:43:58.539Z,53.80
2023-04-27T21:46:26.414Z,55.40
2023-04-27T21:48:54.201Z,52.70
2023-04-27T21:51:22.470Z,49.40
2023-04-27T21:53:50.829Z,51.80
2023-04-27T21:56:18.607Z,51.00
2023-04-27T21:58:46.492Z,44.30
2023-04-27T22:01:14.644Z,42.30
2023-04-27T22:03:42.560Z,45.70
2023-04-27T22:06:10.781Z,40.10
2023-04-27T22:08:38.565Z,42.80
2023-04-27T22:11:06.328Z,40.50
2023-04-27T22:13:34.622Z,41.40
2023-04-27T22:16:02.468Z,36.90
2023-04-27T22:18:30.402Z,39.30
2023-04-27T22:20:58.374Z,35.60
2023-04-27T22:23:26.673Z,37.20
2023-04-27T22:25:54.423Z,37.50
2023-04-27T22:28:22.281Z,37.50
2023-04-27T22:30:50.093Z,32.90
2023-04-27T22:33:18.468Z,36.90
2023-04-27T22:35:46.980Z,33.70
2023-04-27T22:38:14.855Z,37.40
2023-04-27T22:40:42.708Z,40.60
2023-04-27T22:43:10.422Z,38.60
2023-04-27T22:45:39.052Z,38.80
2023-04-27T22:48:07.254Z,39.20
2023-04-27T22:50:35.264Z,39.50
2023-04-27T22:53:03.874Z,44.70
2023-04-27T22:55:31.592Z,47.00
2023-04-27T22:57:59.362Z,46.40
2023-04-27T23:00:27.765Z,47.70
2023-04-27T23:02:56.313Z,47.10
2023-04-27T23:05:24.186Z,49.90
2023-04-27T23:07:52.043Z,46.90
2023-04-27T23:10:19.894Z,51.30
2023-04-27T23:12:47.830Z,51.40
2023-04-27T23:15:16.579Z,54.60
2023-04-27T23:17:44.371Z,52.60
2023-04-27T23:20:24.634Z,48.90
2023-04-27T23:22:56.575Z,52.30
2023-04-27T23:25:24.753Z,52.20
2023-04-27T23:27:53.316Z,48.60
2023-04-27T23:30:22.257Z,47.10
2023-04-27T23:32:50.301Z,47.70
2023-04-27T23:35:18.337Z,48.20
2023-04-27T23:37:46.151Z,46.10
2023-04-27T23:40:14.577Z,46.50
2023-04-27T23:42:43.098Z,48.30
2023-04-27T23:45:11.473Z,46.20
2023-04-27T23:47:39.812Z,48.80
2023-04-27T23:50:08.281Z,51.30
2023-04-27T23:52:36.134Z,56.50
2023-04-27T23:55:04.180Z,53.40
2023-04-27T23:57:32.378Z,54.00
